Time;durP1;ratioP1;P1;durP2;ratioP2;P2;SDS_P1;SDS_P2;PMS_P1;PMS_P2;Temp;Humidity;BMP_temperature;BMP_pressure;BME280_temperature;BME280_humidity;BME280_pressure;Samples;Min_cycle;Max_cycle;Signal;HPM_P1;HPM_P2
2021/12/19 00:00:51;;;;;;;11.43;3.90;;;;;;;6.00;94.42;103879.75;4996832;28;96565;-41
2021/12/19 00:08:49;;;;;;;4.07;2.17;;;;;;;5.93;94.15;103884.16;4996936;28;97036;-41
2021/12/19 00:11:15;;;;;;;7.25;3.00;;;;;;;5.96;94.14;103886.94;4995383;28;96602;-41
2021/12/19 00:13:41;;;;;;;5.18;2.47;;;;;;;5.93;94.09;103894.91;4996764;28;96619;-41
2021/12/19 00:16:07;;;;;;;6.50;2.40;;;;;;;5.90;94.19;103876.97;4996006;28;99769;-41
2021/12/19 00:18:32;;;;;;;2.63;1.85;;;;;;;5.94;94.04;103899.47;4994814;28;99974;-41
2021/12/19 00:20:58;;;;;;;2.25;1.25;;;;;;;5.90;94.11;103886.84;4996361;28;96620;-41
2021/12/19 00:23:23;;;;;;;4.30;1.30;;;;;;;5.84;93.60;103893.09;4996494;28;96712;-41
2021/12/19 00:25:49;;;;;;;2.35;1.05;;;;;;;5.83;93.63;103893.97;4996072;28;99691;-41
2021/12/19 00:28:14;;;;;;;2.00;1.13;;;;;;;5.75;93.69;103877.78;4995844;28;99136;-41
2021/12/19 00:30:41;;;;;;;2.63;1.15;;;;;;;5.75;93.47;103871.50;4994658;28;96589;-41
2021/12/19 00:33:06;;;;;;;2.47;1.08;;;;;;;5.77;93.74;103872.41;4996446;28;96743;-41
2021/12/19 00:35:31;;;;;;;3.72;1.35;;;;;;;5.70;93.52;103860.69;4995136;28;121878;-41
2021/12/19 00:37:57;;;;;;;3.38;1.80;;;;;;;5.66;93.60;103866.03;4995425;28;99155;-41
2021/12/19 00:40:23;;;;;;;4.97;1.90;;;;;;;5.66;93.80;103872.31;4996453;28;96634;-41
2021/12/19 00:43:01;;;;;;;1.05;0.80;;;;;;;5.65;93.70;103870.53;4996308;28;96783;-41
2021/12/19 00:45:29;;;;;;;2.53;1.23;;;;;;;5.74;93.68;103883.13;4995661;28;99398;-41
2021/12/19 00:47:55;;;;;;;3.60;1.52;;;;;;;5.66;93.44;103866.03;4994423;28;100911;-42
2021/12/19 00:50:23;;;;;;;2.13;1.40;;;;;;;5.70;93.62;103868.78;4994731;28;96691;-42
2021/12/19 00:52:49;;;;;;;3.35;1.63;;;;;;;5.71;93.72;103858.91;4994580;28;96811;-41
2021/12/19 00:55:16;;;;;;;1.35;0.95;;;;;;;5.67;93.79;103843.63;4994460;28;106484;-41
2021/12/19 00:57:42;;;;;;;2.53;1.10;;;;;;;5.66;93.64;103837.34;4993359;28;100846;-41
2021/12/19 01:00:13;;;;;;;3.53;1.92;;;;;;;5.75;93.58;103858.94;4995902;28;96770;-41
2021/12/19 01:02:39;;;;;;;2.85;1.30;;;;;;;5.62;93.66;103826.56;4995708;28;96804;-41
2021/12/19 01:05:05;;;;;;;3.20;1.73;;;;;;;5.75;93.41;103853.56;4994025;28;100833;-41
2021/12/19 01:07:31;;;;;;;3.28;1.45;;;;;;;5.78;93.57;103859.88;4993978;28;101985;-41
2021/12/19 01:09:57;;;;;;;9.30;2.30;;;;;;;5.80;93.54;103855.41;4995901;28;96649;-41
2021/12/19 01:12:23;;;;;;;3.95;1.90;;;;;;;5.69;93.56;103833.78;4996290;28;96737;-41
2021/12/19 01:14:49;;;;;;;7.72;2.63;;;;;;;5.62;93.67;103827.47;4995448;28;97962;-41
2021/12/19 01:17:15;;;;;;;6.07;2.30;;;;;;;5.72;93.54;103839.19;4993726;28;101227;-41
2021/12/19 01:19:40;;;;;;;6.75;1.95;;;;;;;5.56;93.64;103821.16;4995398;28;96554;-41
2021/12/19 01:22:06;;;;;;;4.82;2.78;;;;;;;5.68;93.98;103821.25;4995625;28;96855;-41
2021/12/19 01:24:32;;;;;;;5.35;2.50;;;;;;;5.72;93.53;103821.28;4995017;28;99676;-41
2021/12/19 01:26:57;;;;;;;4.07;1.67;;;;;;;5.67;93.77;103820.34;4993754;28;100817;-41
2021/12/19 01:29:23;;;;;;;3.58;1.92;;;;;;;5.80;93.81;103845.53;4995556;28;96546;-41
2021/12/19 01:31:48;;;;;;;6.85;2.10;;;;;;;5.81;93.65;103843.72;4995500;28;96462;-41
2021/12/19 01:34:13;;;;;;;8.68;2.13;;;;;;;5.65;93.55;103821.19;4994857;28;99232;-41
2021/12/19 01:36:43;;;;;;;6.43;2.00;;;;;;;5.72;93.65;103826.66;4994521;28;99193;-41
2021/12/19 01:39:10;;;;;;;2.78;1.45;;;;;;;5.68;93.48;103813.19;4993679;28;96633;-41
2021/12/19 01:41:45;;;;;;;2.03;0.98;;;;;;;5.63;93.66;103802.38;4993905;28;96903;-41
2021/12/19 01:44:10;;;;;;;6.72;1.48;;;;;;;5.68;93.73;103816.75;4992799;28;103212;-41
2021/12/19 01:46:36;;;;;;;3.55;1.08;;;;;;;5.73;93.78;103819.47;4995110;28;97507;-41
2021/12/19 01:49:02;;;;;;;2.80;1.42;;;;;;;5.80;93.74;103825.81;4993837;28;96566;-41
2021/12/19 01:51:27;;;;;;;4.03;1.38;;;;;;;5.78;93.60;103822.22;4995386;28;96699;-41
2021/12/19 01:53:52;;;;;;;1.33;1.10;;;;;;;5.70;93.71;103801.53;4992697;28;125501;-41
2021/12/19 01:56:18;;;;;;;1.92;0.95;;;;;;;5.71;94.00;103816.78;4994171;28;109757;-41
2021/12/19 01:58:45;;;;;;;4.22;1.08;;;;;;;5.66;93.87;103802.41;4994492;28;96754;-42
2021/12/19 02:01:11;;;;;;;1.30;0.57;;;;;;;5.72;93.95;103812.28;4993854;28;96802;-41
2021/12/19 02:03:37;;;;;;;2.85;1.00;;;;;;;5.70;93.80;103804.22;4994571;28;99599;-41
2021/12/19 02:06:03;;;;;;;1.80;1.10;;;;;;;5.64;93.75;103785.34;4994661;28;99375;-41
2021/12/19 02:08:28;;;;;;;2.20;0.73;;;;;;;5.79;93.72;103816.81;4993008;28;96655;-41
2021/12/19 02:10:54;;;;;;;6.05;1.80;;;;;;;5.77;93.95;103809.63;4994876;28;96824;-41
2021/12/19 02:13:19;;;;;;;4.78;1.90;;;;;;;5.78;93.66;103811.44;4994041;28;105645;-41
2021/12/19 02:15:45;;;;;;;1.65;0.85;;;;;;;5.77;93.78;103810.56;4993218;28;99157;-41
2021/12/19 02:18:21;;;;;;;3.90;1.10;;;;;;;5.65;94.45;103776.41;4993532;28;96615;-41
2021/12/19 02:20:58;;;;;;;1.45;0.88;;;;;;;5.82;93.75;103808.78;4993339;28;96896;-41
2021/12/19 02:23:28;;;;;;;2.42;0.73;;;;;;;5.79;93.93;103806.06;4993035;28;101162;-41
2021/12/19 02:25:55;;;;;;;1.42;0.93;;;;;;;5.84;93.83;103801.63;4993105;28;100938;-41
2021/12/19 02:28:21;;;;;;;4.32;1.20;;;;;;;5.86;93.86;103801.63;4993208;28;96689;-41
2021/12/19 02:30:48;;;;;;;4.43;1.52;;;;;;;5.78;93.61;103779.16;4994843;28;96718;-41
2021/12/19 02:33:19;;;;;;;2.42;0.88;;;;;;;5.76;93.65;103773.78;4992445;28;100503;-41
2021/12/19 02:35:52;;;;;;;2.15;0.60;;;;;;;5.85;93.66;103784.59;4994525;28;97935;-41
2021/12/19 02:49:19;;;;;;;5.75;1.27;;;;;;;5.87;93.92;103777.44;4998261;28;96612;-41
2021/12/19 02:51:45;;;;;;;1.90;0.75;;;;;;;5.71;94.17;103743.28;4996836;28;96798;-41
2021/12/19 02:54:22;;;;;;;6.57;0.63;;;;;;;5.84;94.15;103763.03;4996154;28;101087;-41
2021/12/19 02:56:47;;;;;;;5.28;1.83;;;;;;;5.70;94.17;103741.50;4996006;28;101276;-41
2021/12/19 02:59:13;;;;;;;4.20;1.80;;;;;;;5.79;94.49;103748.69;4995593;28;96827;-41
2021/12/19 03:01:38;;;;;;;3.78;1.25;;;;;;;5.79;94.34;103746.00;4997753;28;96771;-41
2021/12/19 03:04:06;;;;;;;3.40;1.27;;;;;;;5.89;94.06;103756.81;4997492;28;98073;-41
2021/12/19 03:06:32;;;;;;;3.53;1.70;;;;;;;5.90;94.11;103758.59;4997235;28;99170;-41
2021/12/19 03:09:03;;;;;;;5.22;1.45;;;;;;;5.81;94.51;103739.72;4997827;28;96699;-41
2021/12/19 03:19:24;;;;;;;3.63;1.02;;;;;;;5.94;94.33;103741.63;4998066;28;97211;-41
2021/12/19 03:21:50;;;;;;;2.85;1.20;;;;;;;5.90;94.19;103726.31;4997486;28;96854;-41
2021/12/19 03:24:15;;;;;;;3.40;1.67;;;;;;;5.88;94.06;103709.28;4995848;28;119385;-41
2021/12/19 03:26:42;;;;;;;8.55;1.45;;;;;;;5.97;94.38;103716.53;4997134;28;97826;-41
2021/12/19 03:29:07;;;;;;;4.97;2.28;;;;;;;5.90;94.30;103698.53;4995951;28;96714;-41
2021/12/19 03:31:32;;;;;;;4.72;2.05;;;;;;;5.99;94.39;103706.69;4996163;28;96544;-41
2021/12/19 03:33:59;;;;;;;4.25;2.00;;;;;;;6.01;94.13;103706.69;4997016;28;96791;-41
2021/12/19 03:36:24;;;;;;;1.38;0.93;;;;;;;5.92;94.45;103683.31;4995408;28;100793;-41
2021/12/19 03:38:57;;;;;;;8.73;1.70;;;;;;;5.93;94.52;103682.41;4996917;28;96724;-41
2021/12/19 03:41:25;;;;;;;1.02;0.57;;;;;;;5.94;94.37;103674.38;4996048;28;96836;-41
2021/12/19 03:43:50;;;;;;;3.85;1.42;;;;;;;6.00;94.47;103677.97;4995464;28;101403;-41
2021/12/19 03:46:16;;;;;;;4.30;1.63;;;;;;;5.88;94.41;103658.16;4996285;28;118557;-41
2021/12/19 03:48:42;;;;;;;7.20;2.00;;;;;;;5.97;94.36;103675.28;4996717;28;96479;-41
2021/12/19 03:51:08;;;;;;;5.30;1.17;;;;;;;6.04;94.38;103679.78;4997093;28;96753;-41
2021/12/19 03:53:34;;;;;;;4.68;1.02;;;;;;;6.05;94.65;103676.19;4978596;28;100949;-41
2021/12/19 03:55:59;;;;;;;1.08;0.68;;;;;;;5.96;94.47;103671.69;4995015;28;100961;-41
2021/12/19 03:58:25;;;;;;;2.58;1.45;;;;;;;5.96;94.71;103671.69;4995450;28;96685;-41
2021/12/19 04:00:53;;;;;;;1.88;1.02;;;;;;;5.95;94.69;103676.16;4995338;28;96746;-41
2021/12/19 04:03:20;;;;;;;4.57;0.88;;;;;;;6.06;94.92;103688.78;4995047;28;100867;-41
2021/12/19 04:05:48;;;;;;;1.55;0.85;;;;;;;5.98;94.94;103677.06;4996404;28;99068;-41
2021/12/19 04:08:14;;;;;;;0.85;0.70;;;;;;;6.00;94.67;103668.09;4995295;28;96610;-41
2021/12/19 04:10:39;;;;;;;5.72;1.08;;;;;;;6.08;94.77;103671.72;4996802;28;96731;-41
2021/12/19 04:13:06;;;;;;;2.50;1.27;;;;;;;6.07;94.57;103677.09;4995911;28;97953;-41
2021/12/19 04:15:31;;;;;;;3.10;1.00;;;;;;;6.07;94.69;103655.56;4996343;28;98808;-41
2021/12/19 04:17:56;;;;;;;1.10;0.63;;;;;;;6.10;94.42;103664.56;4996814;28;96448;-41
2021/12/19 04:20:22;;;;;;;2.00;0.82;;;;;;;6.09;94.59;103657.38;4996557;28;96805;-41
2021/12/19 04:22:50;;;;;;;2.55;0.40;;;;;;;6.07;94.64;103644.81;4994806;28;101013;-41
2021/12/19 04:25:16;;;;;;;1.05;0.63;;;;;;;6.10;94.71;103644.81;4994661;28;100477;-41
2021/12/19 04:27:43;;;;;;;1.33;0.77;;;;;;;6.07;94.77;103634.03;4995056;28;96717;-41
2021/12/19 04:30:13;;;;;;;0.50;0.32;;;;;;;6.16;94.56;103650.22;4997109;28;96477;-41
2021/12/19 04:32:44;;;;;;;2.20;1.02;;;;;;;6.13;94.90;103644.84;4994637;28;102156;-41
2021/12/19 04:35:10;;;;;;;1.73;0.80;;;;;;;6.16;94.94;103655.59;4994491;28;100663;-41
2021/12/19 04:53:22;;;;;;;0.35;0.28;;;;;;;6.20;94.53;103627.81;4996013;28;96528;-41
2021/12/19 04:58:53;;;;;;;0.50;0.20;;;;;;;6.13;94.59;103620.63;4995556;28;96824;-41
2021/12/19 05:16:40;;;;;;;1.42;0.47;;;;;;;6.12;95.14;103618.81;4995394;28;97714;-41
2021/12/19 05:19:21;;;;;;;2.63;0.77;;;;;;;6.13;94.56;103626.00;4995909;28;96588;-41
2021/12/19 05:21:48;;;;;;;3.63;0.65;;;;;;;6.12;94.85;103614.31;4994589;28;96684;-41
2021/12/19 05:26:45;;;;;;;0.83;0.53;;;;;;;6.25;94.87;103644.84;4994705;28;97827;-41
2021/12/19 05:29:11;;;;;;;1.13;0.60;;;;;;;6.22;94.75;103631.41;4993241;28;96713;-41
2021/12/19 05:31:37;;;;;;;1.15;0.47;;;;;;;6.22;94.82;103627.78;4995369;28;96821;-41
2021/12/19 05:34:03;;;;;;;1.25;0.73;;;;;;;6.18;94.55;103616.13;4993806;28;101727;-41
2021/12/19 05:47:05;;;;;;;1.25;0.65;;;;;;;6.27;94.86;103623.31;4995727;28;97019;-41
2021/12/19 05:49:31;;;;;;;0.70;0.55;;;;;;;6.23;94.60;103605.38;4995021;28;96498;-41
2021/12/19 05:51:57;;;;;;;1.88;0.60;;;;;;;6.30;94.83;103616.16;4994896;28;96809;-41
2021/12/19 05:54:22;;;;;;;0.88;0.40;;;;;;;6.24;94.62;103608.06;4994307;28;98670;-41
2021/12/19 05:56:48;;;;;;;2.63;0.68;;;;;;;6.23;94.60;103610.75;4994653;28;97284;-41
2021/12/19 05:59:14;;;;;;;0.45;0.17;;;;;;;6.23;94.89;103606.28;4993550;28;96743;-41
2021/12/19 06:01:39;;;;;;;2.20;0.90;;;;;;;6.23;94.75;103600.00;4994956;28;96747;-41
2021/12/19 06:04:05;;;;;;;1.05;0.40;;;;;;;6.34;94.70;103615.25;4994695;28;97880;-41
2021/12/19 06:06:31;;;;;;;0.28;0.20;;;;;;;6.22;94.86;103590.09;4993143;28;101321;-42
2021/12/19 06:08:57;;;;;;;1.35;0.55;;;;;;;6.22;95.00;103587.41;4994866;28;96534;-41
2021/12/19 06:11:22;;;;;;;0.93;0.32;;;;;;;6.22;94.95;103579.34;4995345;28;96777;-42
2021/12/19 06:13:48;;;;;;;0.52;0.30;;;;;;;6.29;94.68;103591.91;4994165;28;119020;-41
2021/12/19 06:16:13;;;;;;;0.43;0.30;;;;;;;6.24;94.97;103586.53;4994635;28;97768;-41
2021/12/19 06:18:39;;;;;;;1.02;0.25;;;;;;;6.26;95.03;103587.41;4994165;28;96475;-41
2021/12/19 06:21:05;;;;;;;0.50;0.40;;;;;;;6.28;94.92;103596.41;4993829;28;96780;-41
2021/12/19 06:23:32;;;;;;;1.50;0.85;;;;;;;6.36;94.90;103602.72;4994164;28;99484;-41
2021/12/19 06:25:57;;;;;;;0.43;0.22;;;;;;;6.30;95.04;103594.63;4993040;28;100764;-42
2021/12/19 06:28:23;;;;;;;5.35;0.77;;;;;;;6.31;94.99;103582.03;4994848;28;96611;-41
2021/12/19 06:30:48;;;;;;;1.90;1.02;;;;;;;6.34;95.13;103585.66;4994419;28;96835;-41
2021/12/19 06:33:14;;;;;;;0.40;0.30;;;;;;;6.22;95.00;103555.13;4992867;28;101105;-41
2021/12/19 06:35:40;;;;;;;1.10;0.68;;;;;;;6.28;94.92;103569.47;4994936;28;97393;-42
2021/12/19 06:38:06;;;;;;;1.23;0.40;;;;;;;6.30;95.06;103575.78;4994529;28;97235;-41
2021/12/19 06:40:31;;;;;;;0.93;0.28;;;;;;;6.27;94.89;103573.09;4993318;28;96818;-41
2021/12/19 06:42:57;;;;;;;1.50;0.65;;;;;;;6.15;95.38;103555.13;4993819;28;97395;-41
2021/12/19 06:45:22;;;;;;;0.28;0.20;;;;;;;6.25;94.99;103561.41;4994289;28;97748;-41
2021/12/19 06:47:48;;;;;;;1.08;0.38;;;;;;;6.33;94.76;103580.25;4994545;28;96559;-41
2021/12/19 06:50:16;;;;;;;1.08;0.47;;;;;;;6.32;95.02;103573.97;4992935;28;96888;-42
2021/12/19 06:52:41;;;;;;;0.35;0.32;;;;;;;6.34;95.48;103573.97;4992671;28;100800;-41
2021/12/19 06:55:09;;;;;;;0.57;0.35;;;;;;;6.24;95.21;103556.91;4992795;28;97002;-41
2021/12/19 06:57:35;;;;;;;2.80;0.45;;;;;;;6.23;95.07;103547.06;4992091;28;99577;-41
2021/12/19 07:00:00;;;;;;;3.10;0.25;;;;;;;6.23;95.09;103541.69;4993382;28;96708;-41
2021/12/19 07:02:26;;;;;;;0.17;0.03;;;;;;;6.25;95.31;103547.97;4994034;28;97302;-41
2021/12/19 07:04:51;;;;;;;0.43;0.32;;;;;;;6.25;95.03;103550.66;4993745;28;99602;-42
2021/12/19 07:07:19;;;;;;;3.60;0.38;;;;;;;6.36;95.09;103562.31;4993683;28;96592;-41
2021/12/19 07:09:44;;;;;;;1.13;0.30;;;;;;;6.34;95.06;103552.44;4994179;28;96601;-42
2021/12/19 07:12:10;;;;;;;0.35;0.25;;;;;;;6.37;95.22;103557.84;4994087;28;97978;-41
2021/12/19 07:14:35;;;;;;;1.20;0.55;;;;;;;6.27;95.22;103545.25;4993651;28;99087;-41
2021/12/19 07:17:00;;;;;;;0.85;0.43;;;;;;;6.35;95.30;103554.25;4994433;28;96591;-42
2021/12/19 07:19:26;;;;;;;1.23;0.47;;;;;;;6.29;95.01;103541.69;4993380;28;109087;-42
2021/12/19 07:21:51;;;;;;;2.63;0.65;;;;;;;6.22;95.31;103534.50;4993655;28;97413;-41
2021/12/19 07:24:17;;;;;;;1.02;0.47;;;;;;;6.37;95.21;103556.03;4994226;28;98013;-42
2021/12/19 07:26:42;;;;;;;0.20;0.20;;;;;;;6.38;95.12;103554.22;4992027;28;111865;-42
2021/12/19 07:29:08;;;;;;;0.82;0.45;;;;;;;6.33;95.25;103543.47;4993668;28;96818;-41
2021/12/19 07:31:36;;;;;;;2.75;0.35;;;;;;;6.40;95.00;103556.94;4991635;28;100797;-41
2021/12/19 07:34:02;;;;;;;0.55;0.15;;;;;;;6.29;94.92;103530.00;4995115;28;97389;-42
2021/12/19 07:36:35;;;;;;;0.25;0.25;;;;;;;6.38;95.00;103549.72;4997329;28;96463;-41
2021/12/19 07:39:07;;;;;;;0.73;0.17;;;;;;;6.25;94.82;103533.63;4997025;28;96641;-41
2021/12/19 07:41:32;;;;;;;1.33;0.40;;;;;;;6.42;95.18;103558.72;4995592;28;100465;-42
2021/12/19 07:43:57;;;;;;;0.00;0.00;;;;;;;6.42;94.80;103556.03;4996780;28;103721;-42
2021/12/19 07:46:23;;;;;;;0.95;0.35;;;;;;;6.28;95.01;103521.03;4996910;28;96663;-41
2021/12/19 07:48:48;;;;;;;0.77;0.32;;;;;;;6.33;95.24;103535.38;4997199;28;96824;-41
2021/12/19 07:51:13;;;;;;;0.77;0.20;;;;;;;6.40;95.33;103546.16;4996154;28;118553;-42
2021/12/19 07:53:39;;;;;;;0.30;0.13;;;;;;;6.35;95.32;103538.09;4995382;28;99179;-41
2021/12/19 07:56:04;;;;;;;1.23;0.65;;;;;;;6.35;95.44;103541.66;4996132;28;96739;-41
2021/12/19 07:58:30;;;;;;;0.88;0.35;;;;;;;6.28;95.07;103533.59;4995268;28;96917;-41
2021/12/19 08:00:55;;;;;;;0.98;0.63;;;;;;;6.47;95.31;103551.53;4996520;28;99330;-41
2021/12/19 08:03:20;;;;;;;2.38;0.47;;;;;;;6.35;95.16;103530.91;4996201;28;99620;-41
2021/12/19 08:05:46;;;;;;;0.55;0.20;;;;;;;6.46;95.39;103548.84;4996966;28;96542;-41
2021/12/19 08:08:16;;;;;;;4.93;0.88;;;;;;;6.40;94.96;103543.47;4997059;28;96749;-42
2021/12/19 08:13:08;;;;;;;0.70;0.30;;;;;;;6.39;95.51;103542.59;4996771;28;97916;-41
2021/12/19 08:15:35;;;;;;;0.65;0.30;;;;;;;6.39;95.48;103542.59;4995328;28;96884;-42
2021/12/19 08:18:00;;;;;;;0.75;0.43;;;;;;;6.41;95.20;103537.19;4996610;28;96824;-42
2021/12/19 08:20:27;;;;;;;3.00;0.38;;;;;;;6.47;95.31;103556.03;4995917;28;98323;-42
2021/12/19 08:22:53;;;;;;;0.73;0.38;;;;;;;6.37;95.20;103523.72;4994726;28;101296;-41
2021/12/19 08:25:19;;;;;;;4.18;0.40;;;;;;;6.36;95.09;103521.94;4995219;28;96662;-42
2021/12/19 08:27:45;;;;;;;0.28;0.20;;;;;;;6.47;95.04;103542.56;4995196;28;96870;-41
2021/12/19 08:30:12;;;;;;;0.40;0.32;;;;;;;6.43;95.32;103527.31;4995264;28;126408;-42
2021/12/19 08:32:38;;;;;;;1.33;0.60;;;;;;;6.43;95.27;103527.31;4994574;28;101016;-42
2021/12/19 08:35:06;;;;;;;0.52;0.10;;;;;;;6.37;95.01;103514.75;4996265;28;96797;-42
2021/12/19 08:37:31;;;;;;;1.35;0.43;;;;;;;6.38;95.31;103505.78;4995324;28;96885;-41
2021/12/19 08:39:57;;;;;;;0.10;0.10;;;;;;;6.51;95.09;103533.59;4995924;28;97990;-41
2021/12/19 08:42:22;;;;;;;0.88;0.60;;;;;;;6.37;95.35;103515.66;4995908;28;97905;-41
2021/12/19 08:44:48;;;;;;;1.90;0.68;;;;;;;6.47;95.31;103532.69;4995143;28;96601;-42
2021/12/19 08:47:14;;;;;;;0.90;0.47;;;;;;;6.47;95.32;103537.19;4996041;28;96800;-42
2021/12/19 08:49:42;;;;;;;0.85;0.40;;;;;;;6.51;95.19;103531.78;4994308;28;101041;-42
2021/12/19 08:52:09;;;;;;;1.58;0.70;;;;;;;6.57;95.47;103542.53;4995677;28;97832;-42
2021/12/19 08:54:43;;;;;;;0.43;0.13;;;;;;;6.56;94.84;103538.06;4996228;28;96471;-44
2021/12/19 08:57:09;;;;;;;0.28;0.17;;;;;;;6.53;94.82;103521.91;4995841;28;96841;-42
2021/12/19 08:59:34;;;;;;;0.82;0.20;;;;;;;6.58;94.73;103528.19;4994831;28;110790;-42
2021/12/19 09:02:01;;;;;;;0.30;0.20;;;;;;;6.61;94.30;103521.00;4995882;28;99125;-42
2021/12/19 09:04:28;;;;;;;0.40;0.30;;;;;;;6.50;94.49;103508.44;4995889;28;96649;-42
2021/12/19 09:06:56;;;;;;;2.70;0.38;;;;;;;6.54;94.39;103512.94;4994605;28;96890;-42
2021/12/19 09:09:22;;;;;;;0.75;0.45;;;;;;;6.57;94.15;103517.41;4993681;28;101204;-42
2021/12/19 09:11:47;;;;;;;1.23;0.73;;;;;;;6.55;94.52;103505.75;4994079;28;100764;-42
2021/12/19 09:14:12;;;;;;;1.10;0.40;;;;;;;6.63;94.37;103524.59;4995016;28;106853;-42
2021/12/19 09:16:38;;;;;;;1.10;0.57;;;;;;;6.61;94.48;103518.31;4995813;28;96762;-41
2021/12/19 09:19:03;;;;;;;0.30;0.30;;;;;;;6.60;94.46;103503.94;4995515;28;97903;-41
2021/12/19 09:21:28;;;;;;;0.73;0.50;;;;;;;6.65;94.63;103518.31;4994647;28;119770;-42
2021/12/19 09:23:53;;;;;;;0.57;0.40;;;;;;;6.65;94.66;103520.09;4995048;28;116927;-42
2021/12/19 09:26:19;;;;;;;0.30;0.28;;;;;;;6.54;94.58;103502.16;4995824;28;96899;-41
2021/12/19 09:28:44;;;;;;;0.08;0.08;;;;;;;6.61;94.61;103513.81;4993832;28;99028;-42
2021/12/19 09:31:09;;;;;;;0.47;0.20;;;;;;;6.59;94.81;103508.44;4994837;28;114530;-42
2021/12/19 09:33:35;;;;;;;0.10;0.10;;;;;;;6.71;94.73;103523.66;4994684;28;99859;-42
2021/12/19 09:36:00;;;;;;;2.05;0.40;;;;;;;6.63;94.95;103503.06;4995374;28;96811;-42
2021/12/19 09:38:26;;;;;;;0.90;0.25;;;;;;;6.66;94.80;103501.25;4994994;28;97958;-42
2021/12/19 09:41:00;;;;;;;0.57;0.25;;;;;;;6.75;94.84;103519.19;4993606;28;100945;-42
2021/12/19 09:43:41;;;;;;;0.32;0.20;;;;;;;6.76;94.82;103510.19;4995290;28;96706;-42
2021/12/19 09:46:09;;;;;;;0.00;0.00;;;;;;;6.69;95.04;103497.63;4993918;28;96746;-42
2021/12/19 09:48:35;;;;;;;1.75;0.30;;;;;;;6.78;95.17;103511.97;4993354;28;104460;-42
2021/12/19 09:51:01;;;;;;;0.90;0.38;;;;;;;6.78;94.90;103509.28;4993935;28;100744;-42
2021/12/19 09:53:26;;;;;;;0.60;0.40;;;;;;;6.65;94.97;103485.06;4995195;28;96559;-42
2021/12/19 09:55:51;;;;;;;0.70;0.50;;;;;;;6.82;95.07;103512.88;4993522;28;97614;-42
2021/12/19 09:58:16;;;;;;;0.22;0.20;;;;;;;6.72;94.62;103497.63;4993693;28;99015;-42
2021/12/19 10:00:42;;;;;;;1.58;0.47;;;;;;;6.73;94.96;103500.31;4994592;28;103589;-42
2021/12/19 10:03:11;;;;;;;1.35;0.70;;;;;;;6.82;94.75;103512.88;4995082;28;96566;-42
2021/12/19 10:05:36;;;;;;;1.33;0.65;;;;;;;6.79;94.66;103503.00;4993486;28;96781;-42
2021/12/19 10:08:03;;;;;;;0.77;0.50;;;;;;;6.77;94.61;103496.72;4994843;28;98025;-42
2021/12/19 10:10:41;;;;;;;0.20;0.20;;;;;;;6.89;94.52;103511.97;4992966;28;100845;-42
2021/12/19 10:13:07;;;;;;;1.20;0.32;;;;;;;6.90;94.31;103502.06;4993479;28;96665;-42
2021/12/19 10:15:38;;;;;;;0.52;0.35;;;;;;;6.90;94.40;103505.66;4995042;28;96735;-42
2021/12/19 10:18:11;;;;;;;0.95;0.63;;;;;;;6.94;94.70;103511.94;4994543;28;99563;-42
2021/12/19 10:20:57;;;;;;;0.73;0.47;;;;;;;6.93;94.46;103502.94;4994451;28;99262;-42
2021/12/19 10:23:35;;;;;;;0.45;0.43;;;;;;;6.93;94.34;103494.84;4994165;28;96717;-42
2021/12/19 10:26:10;;;;;;;0.22;0.20;;;;;;;6.81;94.33;103473.34;4993356;28;96548;-42
2021/12/19 10:28:53;;;;;;;0.90;0.30;;;;;;;6.91;94.47;103495.78;4992998;28;100976;-42
2021/12/19 10:31:18;;;;;;;0.70;0.30;;;;;;;6.79;94.40;103473.38;4994636;28;97453;-42
2021/12/19 10:33:44;;;;;;;0.35;0.30;;;;;;;6.94;94.37;103498.47;4994517;28;97410;-42
2021/12/19 10:36:10;;;;;;;0.03;0.03;;;;;;;6.87;94.01;103491.31;4993226;28;96830;-42
2021/12/19 10:38:52;;;;;;;4.35;0.60;;;;;;;6.86;94.05;103487.69;4993860;28;99422;-42
2021/12/19 10:41:30;;;;;;;0.85;0.55;;;;;;;6.93;94.30;103496.66;4993259;28;101017;-42
2021/12/19 10:44:04;;;;;;;0.30;0.30;;;;;;;6.84;94.33;103465.28;4993153;28;96657;-42
2021/12/19 10:46:35;;;;;;;1.30;0.47;;;;;;;6.91;94.44;103472.44;4994783;28;96504;-42
2021/12/19 10:49:02;;;;;;;0.30;0.30;;;;;;;6.95;94.11;103467.91;4993972;28;97933;-42
2021/12/19 10:51:30;;;;;;;0.25;0.10;;;;;;;6.94;94.17;103460.75;4988359;28;100569;-42
2021/12/19 10:54:00;;;;;;;0.82;0.43;;;;;;;6.92;94.02;103451.78;4977517;28;96690;-41
2021/12/19 10:56:31;;;;;;;0.20;0.20;;;;;;;6.95;94.21;103455.34;4974428;28;96831;-42
2021/12/19 10:59:00;;;;;;;0.43;0.28;;;;;;;6.90;93.92;103437.41;4993400;28;99018;-41
2021/12/19 11:01:29;;;;;;;0.52;0.22;;;;;;;6.88;93.97;103426.63;4986554;28;100783;-41
2021/12/19 11:04:12;;;;;;;0.50;0.50;;;;;;;6.97;94.04;103445.44;4973195;28;96644;-41
2021/12/19 11:06:45;;;;;;;0.20;0.20;;;;;;;6.91;94.16;103431.09;4973323;28;96672;-42
2021/12/19 11:09:14;;;;;;;1.60;0.55;;;;;;;6.99;94.05;103437.38;4976701;28;112663;-41
2021/12/19 11:11:47;;;;;;;1.48;0.52;;;;;;;7.01;94.23;103439.16;4976154;28;101315;-41
2021/12/19 11:14:23;;;;;;;6.65;1.00;;;;;;;6.96;94.05;103421.19;4975882;28;96551;-41
2021/12/19 11:16:51;;;;;;;1.13;0.77;;;;;;;6.92;94.08;103408.66;4976283;28;96831;-41
2021/12/19 11:19:17;;;;;;;1.73;0.77;;;;;;;6.92;93.97;103403.28;4975897;28;100727;-41
2021/12/19 11:21:43;;;;;;;1.10;0.68;;;;;;;7.01;94.10;103416.72;4975863;28;100961;-41
2021/12/19 11:24:12;;;;;;;0.77;0.40;;;;;;;6.93;94.07;103394.28;4977494;28;96579;-41
2021/12/19 11:26:39;;;;;;;1.15;0.82;;;;;;;6.85;94.26;103382.66;4976085;28;96967;-42
2021/12/19 11:29:06;;;;;;;1.17;0.57;;;;;;;6.93;94.38;103394.28;4977134;28;99350;-41
2021/12/19 11:31:33;;;;;;;1.42;0.88;;;;;;;7.08;94.20;103414.84;4976127;28;101262;-42
2021/12/19 11:34:21;;;;;;;5.20;0.73;;;;;;;7.06;94.46;103403.22;4975931;28;96583;-41
2021/12/19 11:36:55;;;;;;;0.55;0.47;;;;;;;7.05;94.24;103390.63;4976164;28;96831;-42
2021/12/19 11:39:26;;;;;;;1.42;0.73;;;;;;;7.07;94.13;103391.50;4976146;28;98962;-41
2021/12/19 11:42:27;;;;;;;1.02;0.68;;;;;;;7.09;93.98;103387.91;4975513;28;101212;-41
2021/12/19 11:45:18;;;;;;;1.02;0.65;;;;;;;7.02;93.97;103372.69;4976426;28;96810;-41
2021/12/19 11:47:55;;;;;;;1.15;0.75;;;;;;;7.07;93.80;103380.72;4975993;28;96647;-42
2021/12/19 11:50:28;;;;;;;5.53;0.68;;;;;;;7.08;93.55;103377.13;4975393;28;99228;-42
2021/12/19 11:53:17;;;;;;;4.20;1.33;;;;;;;6.95;93.85;103355.63;4975393;28;101359;-42
2021/12/19 11:56:06;;;;;;;1.67;1.15;;;;;;;7.07;93.62;103378.94;4976672;28;96609;-41
2021/12/19 11:58:49;;;;;;;1.42;0.55;;;;;;;7.00;93.25;103364.59;4976132;28;97011;-42
2021/12/19 12:01:23;;;;;;;4.95;1.33;;;;;;;7.00;93.40;103369.09;4976672;28;99015;-42
2021/12/19 12:03:54;;;;;;;2.70;1.30;;;;;;;7.02;93.06;103362.78;4975173;28;100975;-41
2021/12/19 12:06:24;;;;;;;1.58;1.08;;;;;;;7.07;93.25;103376.22;4976320;28;96609;-41
2021/12/19 12:09:08;;;;;;;2.30;1.05;;;;;;;7.09;92.94;103369.03;4975516;28;96689;-41
2021/12/19 12:11:39;;;;;;;2.30;0.95;;;;;;;7.07;92.92;103362.75;4976707;28;97914;-42
2021/12/19 12:14:23;;;;;;;3.22;1.60;;;;;;;7.05;92.90;103350.19;4975154;28;101307;-42
2021/12/19 12:16:54;;;;;;;1.83;0.93;;;;;;;6.98;92.87;103338.56;4976643;28;96657;-42
2021/12/19 12:19:36;;;;;;;2.33;1.25;;;;;;;7.00;92.81;103339.44;4974546;28;96957;-42
2021/12/19 12:22:24;;;;;;;2.17;0.80;;;;;;;7.11;92.79;103348.38;4975045;28;101323;-42
2021/12/19 12:25:02;;;;;;;0.75;0.55;;;;;;;7.11;92.78;103342.97;4975223;28;100785;-42
2021/12/19 12:27:40;;;;;;;3.83;1.17;;;;;;;7.09;92.64;103342.09;4976652;28;96486;-41
2021/12/19 12:30:09;;;;;;;2.17;0.90;;;;;;;7.09;92.50;103339.38;4975175;28;96831;-42
2021/12/19 12:32:35;;;;;;;3.25;1.33;;;;;;;7.07;92.73;103333.13;4974656;28;99004;-41
2021/12/19 12:35:01;;;;;;;2.47;1.20;;;;;;;7.09;92.49;103331.31;4976086;28;99331;-42
2021/12/19 12:37:27;;;;;;;5.95;1.10;;;;;;;7.09;92.68;103331.31;4976523;28;96455;-42
2021/12/19 12:40:25;;;;;;;9.32;1.73;;;;;;;7.08;92.40;103332.22;4974816;28;96767;-42
2021/12/19 12:43:00;;;;;;;3.28;1.60;;;;;;;7.07;92.76;103327.72;4974649;28;101391;-42
2021/12/19 12:45:28;;;;;;;8.27;1.55;;;;;;;6.98;92.57;103320.63;4974687;28;100746;-42
2021/12/19 12:47:53;;;;;;;2.38;1.40;;;;;;;6.89;92.72;103306.28;4974894;28;96542;-42
2021/12/19 12:50:19;;;;;;;4.10;1.25;;;;;;;6.94;92.86;103305.38;4976641;28;96804;-42